Escribe el Código OACI del Aeropuerto

Buscar por Aeropuerto o Ciudad

Información Meteorológica Actual

SBFL | Hercílio Luz International Airport

Florianópolis, Santa Catarina, Brazil

Última Actualización Hace 9 Minutos

Chaparrón

23 ºC de Temperatura

Vientos Moderados del SurEste

Temperatura

23 ºC

Temperatura del Punto de Rocío

14 ºC

Humedad Relativa

57.09 %

Dirección del Viento

SurEste (130º, Sin Variaciones de Consideración)

Velocidad del Viento

24 km/h (13 kt)

Ráfagas

No Hay

Visibilidad

Mayor a 10 kilómetros

Presión Reducida a Nivel del Mar

1021 hPa (Hectopascales)

Capas de Nubes

60% a 90% de Cielo Cubierto con Base a 1219 mts (4000 ft) de Altura.

METAR SBFL 071400Z 13013KT 9999 VCSH BKN040 23/14 Q1021

Pronóstico Meteorológico

SBFL | Hercílio Luz International Airport

Florianópolis, Santa Catarina, Brazil

Pronóstico válido para las próximas 22 Horas

A partir de este momento se espera:

Cielo Parcialmente Nublado

Vientos Moderados del Sur

En 8 a 10 horas se espera el comienzo de:

Cielo Mayormente Nublado

Vientos Leves a Moderados del Sur

Temperatura Máxima

23 ºC en 4 Horas

Temperatura Mínima

20 ºC en 19 Horas

TAF SBFL 070900Z 0712/0812 16008KT 8000 BKN020 TX23/0718Z TN20/0809Z BECMG 0712/0714 16014KT SCT035 BECMG 0722/0724 16008KT BKN020 RMK PFD